createdAt,value
2024-03-06T00:01:10.705Z,1.25
2024-03-06T00:03:38.083Z,1.10
2024-03-06T00:06:05.845Z,0.98
2024-03-06T00:08:33.064Z,1.05
2024-03-06T00:11:00.371Z,1.00
2024-03-06T00:13:27.637Z,0.77
2024-03-06T00:15:54.727Z,1.08
2024-03-06T00:18:21.847Z,0.95
2024-03-06T00:20:49.024Z,1.00
2024-03-06T00:23:16.198Z,0.90
2024-03-06T00:25:43.519Z,0.88
2024-03-06T00:28:10.912Z,1.10
2024-03-06T00:30:38.073Z,1.00
2024-03-06T00:33:05.072Z,0.93
2024-03-06T00:35:32.710Z,0.73
2024-03-06T00:38:03.677Z,1.00
2024-03-06T00:40:32.050Z,1.10
2024-03-06T00:42:59.432Z,0.95
2024-03-06T00:45:26.903Z,0.98
2024-03-06T00:47:54.238Z,0.95
2024-03-06T00:50:23.179Z,1.10
2024-03-06T00:52:50.530Z,1.08
2024-03-06T00:55:17.851Z,1.02
2024-03-06T00:57:45.028Z,1.08
2024-03-06T01:00:12.348Z,1.17
2024-03-06T01:02:39.747Z,1.03
2024-03-06T01:05:07.799Z,0.88
2024-03-06T01:07:35.807Z,1.20
2024-03-06T01:10:03.639Z,0.88
2024-03-06T01:12:30.894Z,0.98
2024-03-06T01:14:57.637Z,1.00
2024-03-06T01:17:25.121Z,0.90
2024-03-06T01:19:52.623Z,0.93
2024-03-06T01:22:19.967Z,1.00
2024-03-06T01:24:50.074Z,1.02
2024-03-06T01:29:47.456Z,1.20
2024-03-06T01:32:14.759Z,0.85
2024-03-06T01:34:42.690Z,1.00
2024-03-06T01:37:09.906Z,0.90
2024-03-06T01:39:37.302Z,0.93
2024-03-06T01:42:04.541Z,0.90
2024-03-06T01:44:31.919Z,0.80
2024-03-06T01:46:59.177Z,0.95
2024-03-06T01:49:32.823Z,0.80
2024-03-06T01:52:08.062Z,0.90
2024-03-06T01:54:35.871Z,1.35
2024-03-06T01:57:03.635Z,1.40
2024-03-06T01:59:36.277Z,1.33
2024-03-06T02:02:05.192Z,1.50
2024-03-06T02:04:33.315Z,1.60
2024-03-06T02:07:00.597Z,1.58
2024-03-06T02:09:27.745Z,2.00
2024-03-06T02:11:55.407Z,2.15
2024-03-06T02:14:22.617Z,1.60
2024-03-06T02:16:49.926Z,1.70
2024-03-06T02:19:17.230Z,1.75
2024-03-06T02:21:44.433Z,1.40
2024-03-06T02:24:14.096Z,1.67
2024-03-06T02:26:40.881Z,1.30
2024-03-06T02:29:07.847Z,1.50
2024-03-06T02:31:35.117Z,1.42
2024-03-06T02:34:05.911Z,1.50
2024-03-06T02:36:33.603Z,1.50
2024-03-06T02:39:00.848Z,1.45
2024-03-06T02:41:27.997Z,1.60
2024-03-06T02:43:55.235Z,1.63
2024-03-06T02:46:22.519Z,1.83
2024-03-06T02:48:49.755Z,1.40
2024-03-06T02:51:20.441Z,1.92
2024-03-06T02:53:49.839Z,1.73
2024-03-06T02:56:20.376Z,1.73
2024-03-06T02:58:47.895Z,1.73
2024-03-06T03:01:18.490Z,1.60
2024-03-06T03:03:47.319Z,1.60
2024-03-06T03:06:14.625Z,2.05
2024-03-06T03:08:41.831Z,2.10
2024-03-06T03:11:09.288Z,1.65
2024-03-06T03:13:36.578Z,1.67
2024-03-06T03:16:05.332Z,1.80
2024-03-06T03:18:32.584Z,1.95
2024-03-06T03:20:59.803Z,1.88
2024-03-06T03:23:26.950Z,1.65
2024-03-06T03:25:54.211Z,1.60
2024-03-06T03:28:21.401Z,1.65
2024-03-06T03:30:48.596Z,1.67
2024-03-06T03:33:15.925Z,1.50
2024-03-06T03:35:43.157Z,1.73
2024-03-06T03:38:10.435Z,1.55
2024-03-06T03:40:37.762Z,1.58
2024-03-06T03:43:07.943Z,1.80
2024-03-06T03:45:35.301Z,1.70
2024-03-06T03:48:06.498Z,1.70
2024-03-06T03:50:34.157Z,1.40
2024-03-06T03:53:02.419Z,1.73
2024-03-06T03:55:29.781Z,2.20
2024-03-06T03:57:57.966Z,2.65
2024-03-06T04:00:25.264Z,3.75
2024-03-06T04:02:52.533Z,4.18
2024-03-06T04:05:19.497Z,4.97
2024-03-06T04:07:46.931Z,5.13
2024-03-06T04:10:14.369Z,5.57
2024-03-06T04:12:41.727Z,6.28
2024-03-06T04:15:09.192Z,6.65
2024-03-06T04:17:37.917Z,7.03
2024-03-06T04:20:07.259Z,7.00
2024-03-06T04:22:34.494Z,6.97
2024-03-06T04:25:02.998Z,6.40
2024-03-06T04:27:30.152Z,6.88
2024-03-06T04:29:57.276Z,6.72
2024-03-06T04:32:24.555Z,6.72
2024-03-06T04:34:51.489Z,6.72
2024-03-06T04:37:18.821Z,6.28
2024-03-06T04:39:45.639Z,7.32
2024-03-06T04:42:12.774Z,7.45
2024-03-06T04:44:39.881Z,7.38
2024-03-06T04:47:06.716Z,6.55
2024-03-06T04:49:38.713Z,7.20
2024-03-06T04:52:05.933Z,7.68
2024-03-06T04:54:33.332Z,7.40
2024-03-06T04:57:00.613Z,7.72
2024-03-06T04:59:27.816Z,7.90
2024-03-06T05:01:55.172Z,8.48
2024-03-06T05:59:18.201Z,6.75
2024-03-06T06:01:45.421Z,7.05
2024-03-06T06:04:14.672Z,7.15
2024-03-06T06:06:42.071Z,6.73
2024-03-06T06:09:14.750Z,6.90
2024-03-06T06:11:41.972Z,5.85
2024-03-06T06:14:09.225Z,6.43
2024-03-06T06:16:37.066Z,5.38
2024-03-06T06:19:04.888Z,6.07
2024-03-06T06:21:32.266Z,5.93
2024-03-06T06:23:59.507Z,6.40
2024-03-06T06:26:26.686Z,6.47
2024-03-06T06:28:53.868Z,7.85
2024-03-06T06:31:21.125Z,9.02
2024-03-06T06:33:48.392Z,9.30
2024-03-06T06:36:15.544Z,9.35
2024-03-06T06:38:42.839Z,8.57
2024-03-06T06:41:10.071Z,8.68
2024-03-06T06:43:37.235Z,8.20
2024-03-06T06:46:06.749Z,8.27
2024-03-06T06:48:34.607Z,7.10
2024-03-06T06:51:04.723Z,6.82
2024-03-06T06:53:32.223Z,5.85
2024-03-06T06:55:59.969Z,5.32
2024-03-06T06:58:28.157Z,4.45
2024-03-06T07:00:55.563Z,4.20
2024-03-06T07:03:24.246Z,3.70
2024-03-06T07:05:51.501Z,3.25
2024-03-06T07:08:18.687Z,3.53
2024-03-06T07:10:45.961Z,2.65
2024-03-06T07:13:12.832Z,3.00
2024-03-06T07:15:40.101Z,2.50
2024-03-06T07:18:07.421Z,2.35
2024-03-06T07:20:34.679Z,2.03
2024-03-06T07:23:01.953Z,1.73
2024-03-06T07:25:28.842Z,1.63
2024-03-06T07:27:56.087Z,2.00
2024-03-06T07:30:23.409Z,1.80
2024-03-06T07:32:50.631Z,1.55
2024-03-06T07:35:18.884Z,2.00
2024-03-06T07:37:46.155Z,1.77
2024-03-06T07:40:13.436Z,1.40
2024-03-06T07:42:40.648Z,1.80
2024-03-06T07:45:11.203Z,1.50
2024-03-06T07:47:39.127Z,1.77
2024-03-06T07:50:07.731Z,1.40
2024-03-06T07:52:34.994Z,1.90
2024-03-06T07:55:01.862Z,1.55
2024-03-06T07:57:29.713Z,1.15
2024-03-06T07:59:56.884Z,1.33
2024-03-06T08:02:24.115Z,1.42
2024-03-06T08:04:51.629Z,1.20
2024-03-06T08:07:18.832Z,1.60
2024-03-06T08:09:46.049Z,1.50
2024-03-06T08:12:13.277Z,1.58
2024-03-06T08:14:40.510Z,1.67
2024-03-06T08:17:07.918Z,2.40
2024-03-06T08:19:35.162Z,2.15
2024-03-06T08:22:06.435Z,2.00
2024-03-06T08:24:33.687Z,1.90
2024-03-06T08:27:01.371Z,1.70
2024-03-06T08:29:28.798Z,1.83
2024-03-06T08:31:59.198Z,2.08
2024-03-06T08:34:26.569Z,1.70
2024-03-06T08:36:54.518Z,1.80
2024-03-06T08:39:21.728Z,1.90
2024-03-06T08:41:49.005Z,2.60
2024-03-06T08:44:16.613Z,2.72
2024-03-06T08:46:43.811Z,2.90
2024-03-06T08:49:11.952Z,2.30
2024-03-06T08:51:39.148Z,2.95
2024-03-06T08:54:06.470Z,2.80
2024-03-06T08:56:35.562Z,3.00
2024-03-06T08:59:03.716Z,2.60
2024-03-06T09:01:30.999Z,2.33
2024-03-06T09:03:58.558Z,2.97
2024-03-06T09:06:25.706Z,2.50
2024-03-06T09:08:52.505Z,2.40
2024-03-06T09:11:19.841Z,2.33
2024-03-06T09:13:47.069Z,3.00
2024-03-06T09:16:14.255Z,2.85
2024-03-06T09:18:41.460Z,2.40
2024-03-06T09:21:08.626Z,2.40
2024-03-06T09:23:35.932Z,2.55
2024-03-06T09:26:03.174Z,2.92
2024-03-06T09:28:30.586Z,2.47
2024-03-06T09:30:58.223Z,2.65
2024-03-06T09:33:25.457Z,2.65
2024-03-06T09:35:52.748Z,2.70
2024-03-06T09:38:20.575Z,2.50
2024-03-06T09:40:48.057Z,2.28
2024-03-06T09:43:15.311Z,1.98
2024-03-06T09:45:42.516Z,2.20
2024-03-06T09:48:10.365Z,2.20
2024-03-06T09:50:42.549Z,2.70
2024-03-06T09:53:11.164Z,2.67
2024-03-06T09:55:39.168Z,2.40
2024-03-06T09:58:06.486Z,2.60
2024-03-06T10:00:34.113Z,2.80
2024-03-06T10:03:02.410Z,3.10
2024-03-06T10:05:31.403Z,3.80
2024-03-06T10:08:00.464Z,4.15
2024-03-06T10:10:27.973Z,4.40
2024-03-06T10:12:55.386Z,5.05
2024-03-06T10:15:23.328Z,6.72
2024-03-06T10:17:51.242Z,7.80
2024-03-06T10:20:23.370Z,7.78
2024-03-06T10:22:56.173Z,7.65
2024-03-06T10:25:27.133Z,7.38
2024-03-06T10:28:11.370Z,6.88
2024-03-06T10:30:43.182Z,6.43
2024-03-06T10:33:11.472Z,6.60
2024-03-06T10:35:38.973Z,6.90
2024-03-06T10:38:08.772Z,5.93
2024-03-06T10:40:36.950Z,5.70
2024-03-06T10:43:08.284Z,6.10
2024-03-06T10:45:44.827Z,6.63
2024-03-06T10:48:14.230Z,5.95
2024-03-06T10:50:46.715Z,7.07
2024-03-06T10:53:20.201Z,7.05
2024-03-06T10:55:51.151Z,7.47
2024-03-06T10:58:20.080Z,6.80
2024-03-06T11:00:51.340Z,6.22
2024-03-06T11:03:18.689Z,6.43
2024-03-06T11:05:52.244Z,6.32
2024-03-06T11:08:20.137Z,6.50
2024-03-06T11:10:47.489Z,6.20
2024-03-06T11:13:25.821Z,6.20
2024-03-06T11:15:54.565Z,5.57
2024-03-06T11:18:30.831Z,5.90
2024-03-06T11:21:03.779Z,6.22
2024-03-06T11:23:31.265Z,6.00
2024-03-06T11:26:02.355Z,6.03
2024-03-06T11:28:30.033Z,6.13
2024-03-06T11:31:03.310Z,6.07
2024-03-06T11:33:38.238Z,5.97
2024-03-06T11:36:18.950Z,5.72
2024-03-06T11:38:57.145Z,5.47
2024-03-06T11:41:26.569Z,5.53
2024-03-06T11:43:56.641Z,5.38
2024-03-06T11:46:45.069Z,5.63
2024-03-06T11:49:21.541Z,4.68
2024-03-06T11:51:49.388Z,4.90
2024-03-06T11:54:16.824Z,4.00
2024-03-06T11:56:49.873Z,4.07
2024-03-06T11:59:17.037Z,4.00
2024-03-06T12:01:44.219Z,4.85
2024-03-06T12:04:11.369Z,4.75
2024-03-06T12:06:38.782Z,3.72
2024-03-06T12:09:05.909Z,2.92
2024-03-06T12:11:33.218Z,2.20
2024-03-06T12:14:00.571Z,1.77
2024-03-06T12:16:27.716Z,2.10
2024-03-06T12:18:58.860Z,2.30
2024-03-06T12:21:35.523Z,2.13
2024-03-06T12:24:12.984Z,2.67
2024-03-06T12:26:39.926Z,2.25
2024-03-06T12:29:08.164Z,1.48
2024-03-06T12:31:36.483Z,0.85
2024-03-06T12:34:05.193Z,0.57
2024-03-06T12:36:33.110Z,0.52
2024-03-06T12:39:01.740Z,1.02
2024-03-06T12:41:29.688Z,0.70
2024-03-06T12:43:58.146Z,1.00
2024-03-06T12:46:27.460Z,1.83
2024-03-06T12:48:54.686Z,3.00
2024-03-06T12:51:21.806Z,3.67
2024-03-06T12:53:49.425Z,3.25
2024-03-06T12:56:16.582Z,3.13
2024-03-06T12:58:43.972Z,2.92
2024-03-06T13:01:14.371Z,2.10
2024-03-06T13:03:41.207Z,1.50
2024-03-06T13:06:08.498Z,1.48
2024-03-06T13:08:35.569Z,1.40
2024-03-06T13:11:02.799Z,1.30
2024-03-06T13:13:30.892Z,1.50
2024-03-06T13:15:57.924Z,1.15
2024-03-06T13:18:27.591Z,1.10
2024-03-06T13:20:55.287Z,0.98
2024-03-06T13:23:23.452Z,1.05
2024-03-06T13:25:50.959Z,0.80
2024-03-06T13:28:17.689Z,1.10
2024-03-06T13:30:44.874Z,0.85
2024-03-06T13:33:13.108Z,0.95
2024-03-06T13:35:40.386Z,1.27
2024-03-06T13:38:07.649Z,1.13
2024-03-06T13:40:34.868Z,0.90
2024-03-06T13:43:02.033Z,0.90
2024-03-06T13:45:29.858Z,1.00
2024-03-06T13:47:57.180Z,0.80
2024-03-06T13:50:26.701Z,1.00
2024-03-06T13:52:54.027Z,0.70
2024-03-06T13:55:21.296Z,0.70
2024-03-06T13:57:49.753Z,0.52
2024-03-06T14:00:20.086Z,0.70
2024-03-06T14:02:48.298Z,0.60
2024-03-06T14:05:16.354Z,0.65
2024-03-06T14:07:43.826Z,0.70
2024-03-06T14:10:11.908Z,0.85
2024-03-06T14:12:40.190Z,0.60
2024-03-06T14:15:13.920Z,0.77
2024-03-06T14:17:41.733Z,1.05
2024-03-06T14:20:09.540Z,0.70
2024-03-06T14:22:36.881Z,0.90
2024-03-06T14:25:04.149Z,0.90
2024-03-06T14:27:31.470Z,0.82
2024-03-06T14:29:58.277Z,0.60
2024-03-06T14:32:26.914Z,0.75
2024-03-06T14:34:53.850Z,1.00
2024-03-06T14:37:20.796Z,0.80
2024-03-06T14:39:47.955Z,1.00
2024-03-06T14:42:16.160Z,0.80
2024-03-06T14:44:44.906Z,1.20
2024-03-06T14:47:12.563Z,1.00
2024-03-06T14:49:43.130Z,0.88
2024-03-06T14:52:10.339Z,0.77
2024-03-06T14:54:38.760Z,0.70
2024-03-06T14:57:07.178Z,0.90
2024-03-06T14:59:34.337Z,1.10
2024-03-06T15:02:01.848Z,1.00
2024-03-06T15:04:29.014Z,0.88
2024-03-06T15:06:57.274Z,0.80
2024-03-06T15:09:27.077Z,0.90
2024-03-06T15:11:54.943Z,1.00
2024-03-06T15:14:22.395Z,0.80
2024-03-06T15:16:49.647Z,0.90
2024-03-06T15:19:16.999Z,0.90
2024-03-06T15:21:44.425Z,1.05
2024-03-06T15:24:11.744Z,1.00
2024-03-06T15:26:38.994Z,1.20
2024-03-06T15:29:07.453Z,0.90
2024-03-06T15:31:34.743Z,1.10
2024-03-06T15:34:02.037Z,1.40
2024-03-06T15:36:29.212Z,1.17
2024-03-06T15:38:58.579Z,0.95
2024-03-06T15:41:26.171Z,1.70
2024-03-06T15:43:53.379Z,1.20
2024-03-06T15:46:20.688Z,1.00
2024-03-06T15:48:47.900Z,1.17
2024-03-06T15:51:15.101Z,1.23
2024-03-06T15:53:42.367Z,1.02
2024-03-06T15:56:11.232Z,1.10
2024-03-06T15:58:38.803Z,0.85
2024-03-06T16:01:06.797Z,1.10
2024-03-06T16:03:34.174Z,1.10
2024-03-06T16:06:11.021Z,1.20
2024-03-06T16:08:43.696Z,1.15
2024-03-06T16:11:11.521Z,1.15
2024-03-06T16:13:39.184Z,1.13
2024-03-06T16:16:06.763Z,1.48
2024-03-06T16:18:33.977Z,1.63
2024-03-06T16:21:03.147Z,1.35
2024-03-06T16:23:30.482Z,1.50
2024-03-06T16:25:57.645Z,1.73
2024-03-06T16:28:24.908Z,1.45
2024-03-06T16:30:51.660Z,1.20
2024-03-06T16:33:19.618Z,1.50
2024-03-06T16:35:46.860Z,1.33
2024-03-06T16:38:15.175Z,1.20
2024-03-06T16:40:42.464Z,1.25
2024-03-06T16:43:09.618Z,1.35
2024-03-06T16:45:36.750Z,1.55
2024-03-06T16:48:05.634Z,1.95
2024-03-06T16:50:34.033Z,1.80
2024-03-06T16:53:01.623Z,1.45
2024-03-06T16:55:30.181Z,1.50
2024-03-06T16:57:56.883Z,1.38
2024-03-06T17:00:25.205Z,2.28
2024-03-06T17:02:52.624Z,2.08
2024-03-06T17:05:19.382Z,1.50
2024-03-06T17:07:46.561Z,1.67
2024-03-06T17:10:13.868Z,1.38
2024-03-06T17:12:41.089Z,2.42
2024-03-06T17:15:08.630Z,1.88
2024-03-06T17:17:35.914Z,1.90
2024-03-06T17:20:03.337Z,1.67
2024-03-06T17:22:30.560Z,1.60
2024-03-06T17:24:57.800Z,1.67
2024-03-06T17:27:24.880Z,1.48
2024-03-06T17:29:52.142Z,1.35
2024-03-06T17:32:22.706Z,1.45
2024-03-06T17:34:50.945Z,1.58
2024-03-06T17:37:18.449Z,1.90
2024-03-06T17:39:46.002Z,1.70
2024-03-06T17:42:12.785Z,1.55
2024-03-06T17:44:39.979Z,1.90
2024-03-06T17:47:07.206Z,1.60
2024-03-06T17:49:34.451Z,2.03
2024-03-06T17:52:01.566Z,2.35
2024-03-06T17:54:29.603Z,2.08
2024-03-06T17:56:59.709Z,1.88
2024-03-06T18:01:54.680Z,2.35
2024-03-06T18:04:23.351Z,2.15
2024-03-06T18:06:51.229Z,2.03
2024-03-06T18:09:20.354Z,2.22
2024-03-06T18:11:47.955Z,2.50
2024-03-06T18:14:15.814Z,2.20
2024-03-06T18:16:46.023Z,2.97
2024-03-06T18:19:13.374Z,2.80
2024-03-06T18:21:47.978Z,3.03
2024-03-06T18:24:15.855Z,2.70
2024-03-06T18:26:44.585Z,3.20
2024-03-06T18:29:12.426Z,2.88
2024-03-06T18:31:39.310Z,3.10
2024-03-06T18:34:06.477Z,3.35
2024-03-06T18:36:34.103Z,3.10
2024-03-06T18:39:00.968Z,3.53
2024-03-06T18:41:28.139Z,3.38
2024-03-06T18:43:55.334Z,3.50
2024-03-06T18:46:22.512Z,3.00
2024-03-06T18:48:49.675Z,3.60
2024-03-06T18:51:16.959Z,3.25
2024-03-06T18:53:44.095Z,3.53
2024-03-06T18:56:12.593Z,3.95
2024-03-06T18:58:39.861Z,3.90
2024-03-06T19:01:06.677Z,3.63
2024-03-06T19:03:34.447Z,3.65
2024-03-06T19:06:01.296Z,4.10
2024-03-06T19:08:28.578Z,4.15
2024-03-06T19:10:55.719Z,3.90
2024-03-06T19:13:22.850Z,4.40
2024-03-06T19:15:49.563Z,3.50
2024-03-06T19:18:17.097Z,4.65
2024-03-06T19:20:44.367Z,4.07
2024-03-06T19:23:11.178Z,4.93
2024-03-06T19:25:37.989Z,4.38
2024-03-06T19:28:05.336Z,4.20
2024-03-06T19:30:32.520Z,4.32
2024-03-06T19:32:59.801Z,4.82
2024-03-06T19:35:27.270Z,4.30
2024-03-06T19:37:54.519Z,4.28
2024-03-06T19:40:21.704Z,4.32
2024-03-06T19:42:48.841Z,4.15
2024-03-06T19:45:15.968Z,3.90
2024-03-06T19:47:43.204Z,3.83
2024-03-06T19:50:10.825Z,3.30
2024-03-06T19:52:39.064Z,3.55
2024-03-06T19:55:07.175Z,3.38
2024-03-06T19:57:35.506Z,3.05
2024-03-06T20:00:11.465Z,3.65
2024-03-06T20:02:39.264Z,3.50
2024-03-06T20:05:07.847Z,3.80
2024-03-06T20:07:35.187Z,3.63
2024-03-06T20:10:02.640Z,3.33
2024-03-06T20:12:29.929Z,3.60
2024-03-06T20:14:56.697Z,3.60
2024-03-06T20:17:23.934Z,3.70
2024-03-06T20:19:52.316Z,2.70
2024-03-06T20:22:19.645Z,2.97
2024-03-06T20:24:46.875Z,2.63
2024-03-06T20:27:14.116Z,2.60
2024-03-06T20:29:41.340Z,2.95
2024-03-06T20:32:08.882Z,3.10
2024-03-06T20:34:38.108Z,3.05
2024-03-06T20:37:05.906Z,3.70
2024-03-06T20:39:34.242Z,3.08
2024-03-06T20:42:01.575Z,3.03
2024-03-06T20:44:29.078Z,3.10
2024-03-06T20:46:55.992Z,3.78
2024-03-06T20:49:23.191Z,3.38
2024-03-06T20:51:50.681Z,3.35
2024-03-06T20:54:17.912Z,3.60
2024-03-06T20:56:45.238Z,3.50
2024-03-06T20:59:13.574Z,3.00
2024-03-06T21:01:40.784Z,3.22
2024-03-06T21:04:11.677Z,2.83
2024-03-06T21:06:38.903Z,3.17
2024-03-06T21:09:06.780Z,3.28
2024-03-06T21:11:34.544Z,2.90
2024-03-06T21:14:02.179Z,3.25
2024-03-06T21:16:29.404Z,3.17
2024-03-06T21:18:56.673Z,2.75
2024-03-06T21:21:23.889Z,3.13
2024-03-06T21:23:51.079Z,3.20
2024-03-06T21:26:18.300Z,3.33
2024-03-06T21:28:46.826Z,3.33
2024-03-06T21:31:13.784Z,2.95
2024-03-06T21:33:40.622Z,3.08
2024-03-06T21:36:07.999Z,3.17
2024-03-06T21:38:35.964Z,3.22
2024-03-06T21:41:04.025Z,2.92
2024-03-06T21:43:34.266Z,2.67
2024-03-06T21:46:02.138Z,3.10
2024-03-06T21:48:29.344Z,3.03
2024-03-06T21:50:56.571Z,2.75
2024-03-06T21:53:23.811Z,2.83
2024-03-06T21:55:50.612Z,2.80
2024-03-06T21:58:20.564Z,2.90
2024-03-06T22:00:48.957Z,3.22
2024-03-06T22:03:15.735Z,3.30
2024-03-06T22:05:42.943Z,3.35
2024-03-06T22:08:09.942Z,3.45
2024-03-06T22:10:37.359Z,3.20
2024-03-06T22:13:04.615Z,3.25
2024-03-06T22:15:31.936Z,2.88
2024-03-06T22:17:59.253Z,3.72
2024-03-06T22:20:26.521Z,4.70
2024-03-06T22:22:53.723Z,3.88
2024-03-06T22:25:21.070Z,4.90
2024-03-06T22:27:49.366Z,4.30
2024-03-06T22:30:17.173Z,4.30
2024-03-06T22:32:47.493Z,4.07
2024-03-06T22:35:14.705Z,4.75
2024-03-06T22:37:41.451Z,4.28
2024-03-06T22:40:10.369Z,4.05
2024-03-06T22:42:37.564Z,4.00
2024-03-06T22:45:04.574Z,4.30
2024-03-06T22:47:32.500Z,3.92
2024-03-06T22:49:59.789Z,3.75
2024-03-06T22:52:26.910Z,4.72
2024-03-06T22:54:54.045Z,5.00
2024-03-06T22:57:22.202Z,4.80
2024-03-06T22:59:49.536Z,4.38
2024-03-06T23:02:16.716Z,5.35
2024-03-06T23:04:43.894Z,5.25
2024-03-06T23:07:11.108Z,5.40
2024-03-06T23:09:38.297Z,5.70
2024-03-06T23:12:05.884Z,4.75
2024-03-06T23:14:34.341Z,5.65
2024-03-06T23:17:01.472Z,5.35
2024-03-06T23:19:28.730Z,5.80
2024-03-06T23:21:57.956Z,7.13
2024-03-06T23:24:25.095Z,7.17
2024-03-06T23:26:53.450Z,6.45
2024-03-06T23:29:20.736Z,6.63
2024-03-06T23:31:47.990Z,7.07
2024-03-06T23:34:15.213Z,6.80
2024-03-06T23:36:42.310Z,7.07
2024-03-06T23:39:09.930Z,7.45
2024-03-06T23:41:37.237Z,8.30
2024-03-06T23:44:04.499Z,8.27
2024-03-06T23:46:32.631Z,7.85
2024-03-06T23:48:59.816Z,8.23
2024-03-06T23:51:27.277Z,8.30
2024-03-06T23:53:54.496Z,7.60
2024-03-06T23:56:21.624Z,9.20
2024-03-06T23:58:48.785Z,8.38
